Map

Track Data

SID SEASON NUMBER BASIN SUBBASIN NAME ISO_TIME NATURE LAT LON WMO_WIND WMO_PRES WMO_AGENCY TRACK_TYPE DIST2LAND LANDFALL IFLAG USA_AGENCY USA_ATCF_ID USA_LAT USA_LON USA_RECORD USA_STATUS USA_WIND USA_PRES USA_SSHS USA_R34_NE USA_R34_SE USA_R34_SW USA_R34_NW USA_R50_NE USA_R50_SE USA_R50_SW USA_R50_NW USA_R64_NE USA_R64_SE USA_R64_SW USA_R64_NW USA_POCI USA_ROCI USA_RMW USA_EYE TOKYO_LAT TOKYO_LON TOKYO_GRADE TOKYO_WIND TOKYO_PRES TOKYO_R50_DIR TOKYO_R50_LONG TOKYO_R50_SHORT TOKYO_R30_DIR TOKYO_R30_LONG TOKYO_R30_SHORT TOKYO_LAND CMA_LAT CMA_LON CMA_CAT CMA_WIND CMA_PRES HKO_LAT HKO_LON HKO_CAT HKO_WIND HKO_PRES NEWDELHI_LAT NEWDELHI_LON NEWDELHI_GRADE NEWDELHI_WIND NEWDELHI_PRES NEWDELHI_CI NEWDELHI_DP NEWDELHI_POCI REUNION_LAT REUNION_LON REUNION_TYPE REUNION_WIND REUNION_PRES REUNION_TNUM REUNION_CI REUNION_RMW REUNION_R34_NE REUNION_R34_SE REUNION_R34_SW REUNION_R34_NW REUNION_R50_NE REUNION_R50_SE REUNION_R50_SW REUNION_R50_NW REUNION_R64_NE REUNION_R64_SE REUNION_R64_SW REUNION_R64_NW BOM_LAT BOM_LON BOM_TYPE BOM_WIND BOM_PRES BOM_TNUM BOM_CI BOM_RMW BOM_R34_NE BOM_R34_SE BOM_R34_SW BOM_R34_NW BOM_R50_NE BOM_R50_SE BOM_R50_SW BOM_R50_NW BOM_R64_NE BOM_R64_SE BOM_R64_SW BOM_R64_NW BOM_ROCI BOM_POCI BOM_EYE BOM_POS_METHOD BOM_PRES_METHOD NADI_LAT NADI_LON NADI_CAT NADI_WIND NADI_PRES WELLINGTON_LAT WELLINGTON_LON WELLINGTON_WIND WELLINGTON_PRES DS824_LAT DS824_LON DS824_STAGE DS824_WIND DS824_PRES TD9636_LAT TD9636_LON TD9636_STAGE TD9636_WIND TD9636_PRES TD9635_LAT TD9635_LON TD9635_WIND TD9635_PRES TD9635_ROCI NEUMANN_LAT NEUMANN_LON NEUMANN_CLASS NEUMANN_WIND NEUMANN_PRES MLC_LAT MLC_LON MLC_CLASS MLC_WIND MLC_PRES USA_GUST BOM_GUST BOM_GUST_PER REUNION_GUST REUNION_GUST_PER USA_SEAHGT USA_SEARAD_NE USA_SEARAD_SE USA_SEARAD_SW USA_SEARAD_NW STORM_SPEED STORM_DIR
1948337N09149 1948 89 WP MM BEVERLY 1948-12-02 06:00:00 TS 8.90000 148.900 main 1243 1241 O________O_O__ jtwc_wp WP251948 8.90000 148.900 50 0 8.90000 148.900 TC 50 8.90000 148.900 50 983 180 16 285
1948337N09149 1948 89 WP MM BEVERLY 1948-12-02 09:00:00 TS 9.11300 148.105 main 1257 1256 P________P_P__ WP251948 9.11300 148.105 55 0 9.11300 148.105 TC 55 9.11300 148.105 55 984 210 15 285
1948337N09149 1948 89 WP MM BEVERLY 1948-12-02 12:00:00 TS 9.30000 147.400 main 1277 1277 O________OOO__ jtwc_wp WP251948 9.30000 147.400 60 0 9.30000 147.400 TC 60 9.30000 147.400 2 60 9.30000 147.400 60 986 240 13 286
1948337N09149 1948 89 WP MM BEVERLY 1948-12-02 15:00:00 TS 9.45991 146.840 main 1299 1299 P________PPP__ WP251948 9.46219 146.835 65 1 9.46219 146.835 TC 65 9.44627 146.873 2 65 9.46219 146.835 65 988 270 12 290
1948337N09149 1948 89 WP MM BEVERLY 1948-12-02 18:00:00 TS 9.70000 146.300 main 1322 1322 O________OOO__ jtwc_wp WP251948 9.70000 146.300 70 1 9.70000 146.300 TC 70 9.70000 146.300 3 70 9.70000 146.300 70 990 300 13 300
1948337N09149 1948 89 WP MM BEVERLY 1948-12-02 21:00:00 TS 10.1266 145.657 main 1370 1370 P________PPP__ WP251948 10.1275 145.658 72 1 10.1275 145.658 TC 72 10.1239 145.657 3 72 10.1275 145.658 72 992 300 16 305
1948337N09149 1948 89 WP MM BEVERLY 1948-12-03 00:00:00 TS 10.6000 145.000 main 1434 1434 O________OOO__ jtwc_wp WP251948 10.6000 145.000 75 1 10.6000 145.000 TC 75 10.6000 145.000 4 75 10.6000 145.000 75 994 300 15 304
1948337N09149 1948 89 WP MM BEVERLY 1948-12-03 03:00:00 TS 10.9788 144.381 main 1487 1487 P________PPP__ WP251948 10.9799 144.377 75 1 10.9799 144.377 TC 75 10.9756 144.393 4 75 10.9799 144.377 75 994 330 14 301
1948337N09149 1948 89 WP MM BEVERLY 1948-12-03 06:00:00 TS 11.2988 143.806 main 1533 1533 O________OPO__ jtwc_wp WP251948 11.3000 143.800 75 1 11.3000 143.800 TC 75 11.2951 143.825 4 75 11.3000 143.800 75 995 360 12 299
1948337N09149 1948 89 WP MM BEVERLY 1948-12-03 09:00:00 TS 11.5711 143.281 main 1577 1575 P________PPP__ WP251948 11.5724 143.277 75 1 11.5724 143.277 TC 75 11.5671 143.294 4 75 11.5724 143.277 75 994 360 11 297
1948337N09149 1948 89 WP MM BEVERLY 1948-12-03 12:00:00 TS 11.8000 142.800 main 1585 1581 O________OOO__ jtwc_wp WP251948 11.8000 142.800 75 1 11.8000 142.800 TC 75 11.8000 142.800 4 75 11.8000 142.800 75 994 360 10 296
1948337N09149 1948 89 WP MM BEVERLY 1948-12-03 15:00:00 TS 12.0148 142.334 main 1589 1589 P________PPP__ WP251948 12.0149 142.335 75 1 12.0149 142.335 TC 75 12.0146 142.330 4 73 12.0149 142.335 75 992 330 10 294
1948337N09149 1948 89 WP MM BEVERLY 1948-12-03 18:00:00 TS 12.1986 141.899 main 1599 1592 O________OPO__ jtwc_wp WP251948 12.2000 141.900 75 1 12.2000 141.900 TC 75 12.1945 141.897 4 72 12.2000 141.900 75 990 300 9 292
1948337N09149 1948 89 WP MM BEVERLY 1948-12-03 21:00:00 TS 12.3505 141.492 main 1603 1590 P________PPP__ WP251948 12.3499 141.492 72 1 12.3499 141.492 TC 72 12.3522 141.490 4 71 12.3499 141.492 72 988 270 8 291
1948337N09149 1948 89 WP MM BEVERLY 1948-12-04 00:00:00 TS 12.5000 141.100 main 1596 1593 O________OOO__ jtwc_wp WP251948 12.5000 141.100 70 1 12.5000 141.100 TC 70 12.5000 141.100 4 70 12.5000 141.100 70 986 240 9 294
1948337N09149 1948 89 WP MM BEVERLY 1948-12-04 03:00:00 TS 12.6989 140.692 main 1602 1592 P________PPP__ WP251948 12.7075 140.693 70 1 12.7075 140.693 TC 70 12.6733 140.690 4 70 12.7075 140.693 70 986 270 9 296
1948337N09149 1948 89 WP MM BEVERLY 1948-12-04 06:00:00 TS 12.8844 140.299 main 1592 1550 O________OPO__ jtwc_wp WP251948 12.9000 140.300 70 1 12.9000 140.300 TC 70 12.8374 140.298 4 70 12.9000 140.300 70 986 300 8 293
1948337N09149 1948 89 WP MM BEVERLY 1948-12-04 09:00:00 TS 13.0126 139.928 main 1550 1519 P________PPP__ WP251948 13.0225 139.927 70 1 13.0225 139.927 TC 70 12.9828 139.931 4 70 13.0225 139.927 70 986 300 7 288
1948337N09149 1948 89 WP MM BEVERLY 1948-12-04 12:00:00 TS 13.1000 139.600 main 1519 1498 O________OOO__ jtwc_wp WP251948 13.1000 139.600 70 1 13.1000 139.600 TC 70 13.1000 139.600 4 70 13.1000 139.600 70 986 300 6 284
1948337N09149 1948 89 WP MM BEVERLY 1948-12-04 15:00:00 TS 13.1606 139.340 main 1489 1467 P________PPP__ WP251948 13.1574 139.335 70 1 13.1574 139.335 TC 70 13.1700 139.354 4 68 13.1574 139.335 70 986 300 5 282
1948337N09149 1948 89 WP MM BEVERLY 1948-12-04 18:00:00 TS 13.2035 139.109 main 1467 1446 O________OPO__ jtwc_wp WP251948 13.2000 139.100 70 1 13.2000 139.100 TC 70 13.2141 139.137 4 67 13.2000 139.100 70 986 300 5 281
1948337N09149 1948 89 WP MM BEVERLY 1948-12-04 21:00:00 TS 13.2502 138.880 main 1447 1415 P________PPP__ WP251948 13.2499 138.872 67 1 13.2499 138.872 TC 67 13.2511 138.901 4 66 13.2499 138.872 67 986 300 5 281
1948337N09149 1948 89 WP MM BEVERLY 1948-12-05 00:00:00 TS 13.3000 138.600 main 1415 1383 O________OOO__ jtwc_wp WP251948 13.3000 138.600 65 1 13.3000 138.600 TC 65 13.3000 138.600 4 65 13.3000 138.600 65 986 300 6 279
1948337N09149 1948 89 WP MM BEVERLY 1948-12-05 03:00:00 TS 13.3465 138.241 main 1372 1332 P________PPP__ WP251948 13.3349 138.252 67 1 13.3349 138.252 TC 67 13.3812 138.208 4 66 13.3349 138.252 67 984 300 8 279
1948337N09149 1948 89 WP MM BEVERLY 1948-12-05 06:00:00 TS 13.4192 137.786 main 1332 1281 O________OPO__ jtwc_wp WP251948 13.4000 137.800 70 1 13.4000 137.800 TC 70 13.4769 137.742 4 67 13.4000 137.800 70 982 300 10 282
1948337N09149 1948 89 WP MM BEVERLY 1948-12-05 09:00:00 TS 13.5472 137.235 main 1270 1211 P________PPP__ WP251948 13.5349 137.245 70 1 13.5349 137.245 TC 70 13.5841 137.205 4 68 13.5349 137.245 70 975 300 12 284
1948337N09149 1948 89 WP MM BEVERLY 1948-12-05 12:00:00 TS 13.7000 136.600 main 1211 1151 O________OOO__ jtwc_wp WP251948 13.7000 136.600 70 1 13.7000 136.600 TC 70 13.7000 136.600 4 70 13.7000 136.600 70 969 300 13 283
1948337N09149 1948 89 WP MM BEVERLY 1948-12-05 15:00:00 TS 13.8476 135.923 main 1141 1070 P________PPP__ WP251948 13.8574 135.922 70 1 13.8574 135.922 TC 70 13.8183 135.924 4 72 13.8574 135.922 70 961 300 14 282
1948337N09149 1948 89 WP MM BEVERLY 1948-12-05 18:00:00 TS 13.9858 135.197 main 1070 997 O________OPO__ jtwc_wp WP251948 14.0000 135.200 70 1 14.0000 135.200 TC 70 13.9432 135.188 4 75 14.0000 135.200 70 954 300 15 280
1948337N09149 1948 89 WP MM BEVERLY 1948-12-05 21:00:00 TS 14.0984 134.446 main 987 915 P________PPP__ WP251948 14.1074 134.450 75 1 14.1074 134.450 TC 75 14.0714 134.433 4 77 14.1074 134.450 75 950 300 15 278
1948337N09149 1948 89 WP MM BEVERLY 1948-12-06 00:00:00 TS 14.2000 133.700 main 915 845 O________OOO__ jtwc_wp WP251948 14.2000 133.700 80 1 14.2000 133.700 TC 80 14.2000 133.700 4 80 14.2000 133.700 80 947 300 14 278
1948337N09149 1948 89 WP MM BEVERLY 1948-12-06 03:00:00 TS 14.3013 132.989 main 845 786 P________PPP__ WP251948 14.2924 132.970 80 1 14.2924 132.970 TC 80 14.3282 133.046 4 80 14.2924 132.970 80 947 330 13 279
1948337N09149 1948 89 WP MM BEVERLY 1948-12-06 06:00:00 TS 14.4141 132.330 main 776 728 O________OPO__ jtwc_wp WP251948 14.4000 132.300 80 1 14.4000 132.300 TC 80 14.4563 132.420 4 80 14.4000 132.300 80 947 360 12 282
1948337N09149 1948 89 WP MM BEVERLY 1948-12-06 09:00:00 TS 14.5575 131.759 main 732 677 P________PPP__ WP251948 14.5496 131.742 80 1 14.5496 131.742 TC 80 14.5814 131.809 4 80 14.5496 131.742 80 948 330 11 285
1948337N09149 1948 89 WP MM BEVERLY 1948-12-06 12:00:00 TS 14.7000 131.200 main 677 623 O________OOO__ jtwc_wp WP251948 14.7000 131.200 80 1 14.7000 131.200 TC 80 14.7000 131.200 4 80 14.7000 131.200 80 950 300 12 282
1948337N09149 1948 89 WP MM BEVERLY 1948-12-06 15:00:00 TS 14.8052 130.563 main 623 563 P________PPP__ WP251948 14.8075 130.557 80 1 14.8075 130.557 TC 80 14.7985 130.579 4 80 14.8075 130.557 80 954 300 13 279
1948337N09149 1948 89 WP MM BEVERLY 1948-12-06 18:00:00 TS 14.8979 129.914 main 563 516 O________OPO__ jtwc_wp WP251948 14.9000 129.900 80 1 14.9000 129.900 TC 80 14.8917 129.957 4 80 14.9000 129.900 80 959 300 12 279
1948337N09149 1948 89 WP MM BEVERLY 1948-12-06 21:00:00 TS 14.9914 129.308 main 516 474 P________PPP__ WP251948 14.9922 129.300 80 1 14.9922 129.300 TC 80 14.9891 129.332 4 80 14.9922 129.300 80 961 330 12 280
1948337N09149 1948 89 WP MM BEVERLY 1948-12-07 00:00:00 TS 15.1000 128.700 main 474 424 O________OOO__ jtwc_wp WP251948 15.1000 128.700 80 1 15.1000 128.700 TC 80 15.1000 128.700 4 80 15.1000 128.700 80 964 360 12 282
1948337N09149 1948 89 WP MM BEVERLY 1948-12-07 03:00:00 TS 15.2406 128.054 main 424 363 P________PPP__ WP251948 15.2424 128.057 80 1 15.2424 128.057 TC 80 15.2354 128.045 4 80 15.2424 128.057 80 963 360 13 283
1948337N09149 1948 89 WP MM BEVERLY 1948-12-07 06:00:00 TS 15.3962 127.396 main 363 314 O________OPO__ jtwc_wp WP251948 15.4000 127.400 80 1 15.4000 127.400 TC 80 15.3848 127.385 4 80 15.4000 127.400 80 962 360 13 284
1948337N09149 1948 89 WP MM BEVERLY 1948-12-07 09:00:00 TS 15.5478 126.740 main 305 271 P________PPP__ WP251948 15.5499 126.742 80 1 15.5499 126.742 TC 80 15.5417 126.732 4 80 15.5499 126.742 80 960 360 13 284
1948337N09149 1948 89 WP MM BEVERLY 1948-12-07 12:00:00 TS 15.7000 126.100 main 271 239 O________OOO__ jtwc_wp WP251948 15.7000 126.100 80 1 15.7000 126.100 TC 80 15.7000 126.100 4 80 15.7000 126.100 80 958 360 12 284
1948337N09149 1948 89 WP MM BEVERLY 1948-12-07 15:00:00 TS 15.8508 125.485 main 248 229 P________PPP__ WP251948 15.8498 125.485 80 1 15.8498 125.485 TC 80 15.8536 125.487 4 77 15.8498 125.485 80 956 330 12 285
1948337N09149 1948 89 WP MM BEVERLY 1948-12-07 18:00:00 TS 16.0017 124.899 main 232 221 O________OPO__ jtwc_wp WP251948 16.0000 124.900 80 1 16.0000 124.900 TC 80 16.0070 124.897 4 75 16.0000 124.900 80 954 300 12 285
1948337N09149 1948 89 WP MM BEVERLY 1948-12-07 21:00:00 TS 16.1573 124.324 main 207 153 P________PPP__ WP251948 16.1575 124.320 75 1 16.1575 124.320 TC 75 16.1568 124.334 4 72 16.1575 124.320 75 953 300 11 286
1948337N09149 1948 89 WP MM BEVERLY 1948-12-08 00:00:00 TS 16.3000 123.800 main 153 111 O________OOO__ jtwc_wp WP251948 16.3000 123.800 70 1 16.3000 123.800 TC 70 16.3000 123.800 4 70 16.3000 123.800 70 953 300 9 285
1948337N09149 1948 89 WP MM BEVERLY 1948-12-08 03:00:00 TS 16.4076 123.373 main 111 69 P________PPP__ WP251948 16.3996 123.400 70 1 16.3996 123.400 TC 70 16.4316 123.292 4 67 16.3996 123.400 70 954 270 8 285
1948337N09149 1948 89 WP MM BEVERLY 1948-12-08 06:00:00 TS 16.5142 122.953 main 69 21 O________OPO__ jtwc_wp WP251948 16.5000 123.000 70 1 16.5000 123.000 TC 70 16.5567 122.812 4 65 16.5000 123.000 70 955 240 9 286
1948337N09149 1948 89 WP MM BEVERLY 1948-12-08 09:00:00 TS 16.6571 122.442 main 10 0 P________PPP__ WP251948 16.6500 122.473 65 1 16.6500 122.473 TC 65 16.6785 122.351 4 62 16.6500 122.473 65 956 210 11 286
1948337N09149 1948 89 WP MM BEVERLY 1948-12-08 12:00:00 TS 16.8000 121.900 main 0 0 O________OOO__ jtwc_wp WP251948 16.8000 121.900 60 0 16.8000 121.900 TC 60 16.8000 121.900 2 60 16.8000 121.900 60 958 180 11 283
1948337N09149 1948 89 WP MM BEVERLY 1948-12-08 15:00:00 TS 16.9053 121.345 main 0 0 P________PPP__ WP251948 16.9001 121.320 57 0 16.9001 121.320 TC 57 16.9209 121.418 2 56 16.9001 121.320 57 960 180 10 282
1948337N09149 1948 89 WP MM BEVERLY 1948-12-08 18:00:00 TS 17.0106 120.837 main 0 0 O________OPO__ jtwc_wp WP251948 17.0000 120.800 55 0 17.0000 120.800 TC 55 17.0425 120.947 2 52 17.0000 120.800 55 962 180 9 286
1948337N09149 1948 89 WP MM BEVERLY 1948-12-08 21:00:00 TS 17.1487 120.441 main 10 0 P________PPP__ WP251948 17.1423 120.420 50 0 17.1423 120.420 TC 50 17.1679 120.503 2 48 17.1423 120.420 50 964 210 8 292
1948337N09149 1948 89 WP MM BEVERLY 1948-12-09 00:00:00 TS 17.3000 120.100 main 33 33 O________OOO__ jtwc_wp WP251948 17.3000 120.100 45 0 17.3000 120.100 TC 45 17.3000 120.100 2 45 17.3000 120.100 45 967 240 7 294
1948337N09149 1948 89 WP MM BEVERLY 1948-12-09 03:00:00 TS 17.4481 119.735 main 67 64 P________PPP__ WP251948 17.4500 119.735 42 0 17.4500 119.735 TC 42 17.4425 119.736 2 43 17.4500 119.735 42 969 270 7 294
1948337N09149 1948 89 WP MM BEVERLY 1948-12-09 06:00:00 TS 17.5980 119.404 main 95 95 O________OPO__ jtwc_wp WP251948 17.6000 119.400 40 0 17.6000 119.400 TC 40 17.5921 119.417 2 42 17.6000 119.400 40 972 300 6 297
1948337N09149 1948 89 WP MM BEVERLY 1948-12-09 09:00:00 TS 17.7433 119.130 main 127 127 P________PPP__ WP251948 17.7424 119.127 40 0 17.7424 119.127 TC 40 17.7457 119.140 2 41 17.7424 119.127 40 975 330 6 302
1948337N09149 1948 89 WP MM BEVERLY 1948-12-09 12:00:00 TS 17.9000 118.900 main 152 152 O________OOO__ jtwc_wp WP251948 17.9000 118.900 40 0 17.9000 118.900 TC 40 17.9000 118.900 2 40 17.9000 118.900 40 978 360 6 310
1948337N09149 1948 89 WP MM BEVERLY 1948-12-09 15:00:00 TS 18.0937 118.687 main 178 178 P________PPP__ WP251948 18.1075 118.685 40 0 18.1075 118.685 TC 40 18.0523 118.694 2 38 18.1075 118.685 40 980 360 5 315
1948337N09149 1948 89 WP MM BEVERLY 1948-12-09 18:00:00 TS 18.2805 118.503 main 205 205 O________OPO__ jtwc_wp WP251948 18.3000 118.500 40 0 18.3000 118.500 TC 40 18.2026 118.515 2 37 18.3000 118.500 40 983 360 5 314
1948337N09149 1948 89 WP MM BEVERLY 1948-12-09 21:00:00 TS 18.4059 118.344 main 229 229 P________PPP__ WP251948 18.4150 118.342 37 0 18.4150 118.342 TC 37 18.3517 118.353 2 36 18.4150 118.342 37 986 330 4 307
1948337N09149 1948 89 WP MM BEVERLY 1948-12-10 00:00:00 TS 18.5000 118.200 main 243 243 O________OOO__ jtwc_wp WP251948 18.5000 118.200 35 0 18.5000 118.200 TC 35 18.5000 118.200 2 35 18.5000 118.200 35 989 300 3 304
1948337N09149 1948 89 WP MM BEVERLY 1948-12-10 03:00:00 TS 18.5950 118.053 main 258 258 P________P_P__ WP251948 18.5950 118.053 32 -1 18.5950 118.053 TC 32 2 18.5950 118.053 32 992 270 3 305
1948337N09149 1948 89 WP MM BEVERLY 1948-12-10 06:00:00 TS 18.7000 117.900 main 281 O________O_O__ jtwc_wp WP251948 18.7000 117.900 30 -1 18.7000 117.900 TC 30 2 18.7000 117.900 30 995 240 4 306

Digital Typhoon Data and Search

About IBTrACS Database

This database is a web-friendly format of International Best Track Archive for Climate Stewardship (IBTrACS), a global best track data archive curated by NOAA dating back to 1842.

Updated: 2021-10-25